Finnhawk — OJNL — position and weather

sailwx.info

Track history (hours):
 
Tides and Currents Weather Stations Pressure Air Temp Water Temp Dewpoint Dewpoint Depression Visibility Wind Speed Wind Dir Waves Ship Positions

Finnhawk

Last reported at 2016-Aug-26 04:34 UTC. Time now 2016-Aug-26 05:03 UTC.
Position N 55°15' E 013°25'.

Length 163 m; draft 6.8 m.

Type: Ship. MMSI: 230007000.

Date/timePositionNaut miles runAvg speedWind from/ knotsBaromVisibWave heightAir tempDewpointWater temp
2016-Aug-26 04:34N 55°15' E 013°25'1716.5
2016-Aug-26 03:33N 55°14' E 013°54'1514.7
2016-Aug-26 02:34N 55°15' E 014°20'1515.3
2016-Aug-26 01:33N 55°27' E 014°38'1515.3
2016-Aug-26 00:33N 55°34' E 015°01'1515.4
2016-Aug-25 23:34N 55°42' E 015°25'1515.3
2016-Aug-25 22:33N 55°50' E 015°48'7615.0
2016-Aug-25 17:31N 56°50' E 017°12'1616.6
2016-Aug-25 16:31N 57°05' E 017°23'25014.7
2016-Aug-24 23:32N 60°57' E 020°27'87 2.0
2016-Aug-23 03:25N 59°33' E 021°16'3818.7
2016-Aug-23 01:24N 59°35' E 022°30'1619.0
2016-Aug-23 00:33N 59°38' E 023°02'1919.0
2016-Aug-22 23:33N 59°42' E 023°38'2619.0
2016-Aug-22 22:10N 59°49' E 024°29'4918.7
2016-Aug-22 19:34N 60°03' E 026°02'1717.4
2016-Aug-22 18:33N 60°15' E 026°28'1817.7
2016-Aug-22 17:33N 60°26' E 026°57'4 3.6
2016-Aug-22 16:33N 60°29' E 026°57'0 0.0
2016-Aug-22 15:33N 60°29' E 026°57'0 0.0
2016-Aug-22 14:33N 60°29' E 026°57'0 0.0
2016-Aug-22 13:33N 60°29' E 026°57'0 0.0
2016-Aug-22 12:33N 60°29' E 026°57'0 0.0
2016-Aug-22 11:33N 60°29' E 026°57'0 0.0
2016-Aug-22 10:33N 60°29' E 026°57'0 0.0
2016-Aug-22 09:33N 60°29' E 026°57'0 0.0
2016-Aug-22 08:33N 60°29' E 026°57'0 0.0
2016-Aug-22 07:33N 60°29' E 026°57'0 0.0
2016-Aug-22 06:33N 60°29' E 026°57'0 0.0
2016-Aug-22 05:33N 60°29' E 026°57'0 0.0
2016-Aug-22 04:33N 60°29' E 026°57'0 0.0
2016-Aug-22 03:33N 60°29' E 026°57'0 0.0
2016-Aug-22 02:33N 60°29' E 026°57'0 0.0
2016-Aug-22 01:33N 60°29' E 026°57'0 0.2
2016-Aug-22 00:33N 60°29' E 026°57'9 9.5
2016-Aug-21 23:34N 60°22' E 026°43'1717.4
2016-Aug-21 22:34N 60°10' E 026°20'1616.0
2016-Aug-21 21:33N 60°00' E 025°54'2114.2
2016-Aug-21 20:03N 60°03' E 025°11'714.8
2016-Aug-21 19:34N 60°10' E 025°13'11 1.4
2016-Aug-21 11:33N 60°00' E 025°04'1919.0
2016-Aug-21 10:34N 59°46' E 024°38'1918.9
2016-Aug-21 09:34N 59°40' E 024°03'1919.2
2016-Aug-21 08:34N 59°35' E 023°27'1919.3
2016-Aug-21 07:34N 59°28' E 022°51'1919.0
2016-Aug-21 06:33N 59°18' E 022°19'30218.8
2016-Aug-20 14:29N 55°44' E 015°43'1819.3
2016-Aug-20 13:33N 55°35' E 015°16'1919.2
2016-Aug-20 12:33N 55°25' E 014°47'1919.1
2016-Aug-20 11:33N 55°13' E 014°21'1818.4
2016-Aug-20 10:34N 55°11' E 013°49'1918.5
2016-Aug-20 09:34N 55°13' E 013°17'1818.2
2016-Aug-20 08:34N 55°16' E 012°46'1313.5
2016-Aug-20 07:34N 55°30' E 012°41'1111.4
2016-Aug-20 06:34N 55°41' E 012°41'1514.9
2016-Aug-20 05:34N 55°56' E 012°39'1515.4
2016-Aug-20 04:33N 56°09' E 012°25'1817.7
2016-Aug-20 03:34N 56°21' E 012°02'1918.8
2016-Aug-20 02:33N 56°40' E 011°54'1918.8
2016-Aug-20 01:33N 56°57' E 011°42'1818.2
2016-Aug-20 00:33N 57°15' E 011°33'1818.4
2016-Aug-19 23:33N 57°31' E 011°16'1918.6
2016-Aug-19 22:33N 57°44' E 010°51'13917.3
2016-Aug-19 14:33N 56°18' E 007°31'1919.2
2016-Aug-19 13:33N 56°02' E 007°12'2019.1
2016-Aug-19 12:29N 55°45' E 006°52'1819.2
2016-Aug-19 11:33N 55°29' E 006°36'7819.3
2016-Aug-19 07:30N 54°23' E 005°25'1819.5
2016-Aug-19 06:33N 54°07' E 005°09'2019.5
2016-Aug-19 05:33N 53°49' E 004°57'2019.8
2016-Aug-19 04:32N 53°30' E 004°44'2120.1
2016-Aug-19 03:30N 53°10' E 004°31'1919.8
2016-Aug-19 02:33N 52°54' E 004°18'2019.3
2016-Aug-19 01:33N 52°39' E 003°57'1919.0
2016-Aug-19 00:33N 52°24' E 003°38'1818.3
2016-Aug-18 23:33N 52°07' E 003°27'1817.6
2016-Aug-18 22:33N 51°50' E 003°18'1312.9
2016-Aug-18 21:33N 51°38' E 003°21'1313.4
2016-Aug-18 20:34N 51°27' E 003°33'10 9.7
2016-Aug-18 19:34N 51°22' E 003°46'1313.4
2016-Aug-18 18:34N 51°22' E 004°08'9 8.8
2016-Aug-18 17:34N 51°16' E 004°17'2 1.5
2016-Aug-18 16:33N 51°16' E 004°15'1 1.2
2016-Aug-18 15:33N 51°17' E 004°13'0 0.0
2016-Aug-18 14:33N 51°17' E 004°13'0 0.0
2016-Aug-18 13:33N 51°17' E 004°13'0 0.0
2016-Aug-18 12:33N 51°17' E 004°13'0 0.0
2016-Aug-18 11:30N 51°17' E 004°13'0 0.0
2016-Aug-18 10:33N 51°17' E 004°13'0 0.0
2016-Aug-18 09:33N 51°17' E 004°13'0 0.0
2016-Aug-18 08:30N 51°17' E 004°13'0 0.0
2016-Aug-18 07:33N 51°17' E 004°13'0 0.0
2016-Aug-18 06:33N 51°17' E 004°13'0 0.0
2016-Aug-18 05:33N 51°17' E 004°13'1 1.1
2016-Aug-18 04:33N 51°17' E 004°15'5 4.7
2016-Aug-18 03:33N 51°21' E 004°14'1010.4
2016-Aug-18 02:34N 51°26' E 003°59'1110.8
2016-Aug-18 01:34N 51°24' E 003°43'1211.5
2016-Aug-18 00:34N 51°30' E 003°27'1515.4
2016-Aug-17 23:33N 51°44' E 003°15'1212.0
2016-Aug-17 22:33N 51°55' E 003°19'2019.9
2016-Aug-17 21:33N 52°14' E 003°28'1919.2
2016-Aug-17 20:33N 52°24' E 003°55'2019.8
2016-Aug-17 19:33N 52°28' E 004°27'6 5.9
2016-Aug-17 18:33N 52°28' E 004°37'6 5.6
2016-Aug-17 17:34N 52°26' E 004°45'3 3.3
2016-Aug-17 16:31N 52°24' E 004°50'0 0.0
2016-Aug-17 15:31N 52°24' E 004°50'0 0.0
2016-Aug-17 14:31N 52°24' E 004°50'0 0.0
2016-Aug-17 13:31N 52°24' E 004°50'0 0.0
2016-Aug-17 12:31N 52°24' E 004°50'0 0.0
2016-Aug-17 11:31N 52°24' E 004°50'0 0.0
2016-Aug-17 10:31N 52°24' E 004°50'0 0.3
2016-Aug-17 09:33N 52°24' E 004°49'7 7.1
2016-Aug-17 08:33N 52°28' E 004°39'2 2.4
2016-Aug-17 07:33N 52°28' E 004°36'1514.6
2016-Aug-17 06:34N 52°29' E 004°12'1917.4
2016-Aug-17 05:29N 52°25' E 003°42'2118.1
2016-Aug-17 04:18N 52°11' E 003°15'1418.6
2016-Aug-17 03:33N 52°03' E 002°56'1919.2
2016-Aug-17 02:32N 51°53' E 002°29'1919.8
2016-Aug-17 01:33N 51°42' E 002°03'2019.7
2016-Aug-17 00:34N 51°30' E 001°38'1212.2
2016-Aug-16 23:33N 51°29' E 001°18'1717.1
2016-Aug-16 22:33N 51°29' E 000°51'1514.7
2016-Aug-16 21:33N 51°28' E 000°27'4 4.2
2016-Aug-16 20:34N 51°27' E 000°20'1 0.6
2016-Aug-16 19:34N 51°27' E 000°21'0 0.0
2016-Aug-16 18:33N 51°27' E 000°21'0 0.0
2016-Aug-16 17:34N 51°27' E 000°21'0 0.0
2016-Aug-16 16:34N 51°27' E 000°21'0 0.0
2016-Aug-16 15:34N 51°27' E 000°21'0 0.0
2016-Aug-16 14:33N 51°27' E 000°21'0 0.0
2016-Aug-16 13:33N 51°27' E 000°21'0 0.0
2016-Aug-16 12:33N 51°27' E 000°21'0 0.0
2016-Aug-16 11:34N 51°27' E 000°21'0 0.0
2016-Aug-16 10:34N 51°27' E 000°21'0 0.0
2016-Aug-16 09:34N 51°27' E 000°21'0 0.3
2016-Aug-16 08:34N 51°27' E 000°21'0 0.3
2016-Aug-16 07:34N 51°27' E 000°21'  
Track history (hours):
 
Tides and Currents Weather Stations Pressure Air Temp Water Temp Dewpoint Dewpoint Depression Visibility Wind Speed Wind Dir Waves Ship Positions

Finnhawk

Last reported at 2016-Aug-26 04:34 UTC. Time now 2016-Aug-26 05:03 UTC.
Position N 55°15' E 013°25'.

Length 163 m; draft 6.8 m.

Type: Ship. MMSI: 230007000.

Date/timePositionNaut miles runAvg speedWind from/ knotsBaromVisibWave heightAir tempDewpointWater temp
2016-Aug-26 04:34N 55°15' E 013°25'1716.5
2016-Aug-26 03:33N 55°14' E 013°54'1514.7
2016-Aug-26 02:34N 55°15' E 014°20'1515.3
2016-Aug-26 01:33N 55°27' E 014°38'1515.3
2016-Aug-26 00:33N 55°34' E 015°01'1515.4
2016-Aug-25 23:34N 55°42' E 015°25'1515.3
2016-Aug-25 22:33N 55°50' E 015°48'7615.0
2016-Aug-25 17:31N 56°50' E 017°12'1616.6
2016-Aug-25 16:31N 57°05' E 017°23'25014.7
2016-Aug-24 23:32N 60°57' E 020°27'87 2.0
2016-Aug-23 03:25N 59°33' E 021°16'3818.7
2016-Aug-23 01:24N 59°35' E 022°30'1619.0
2016-Aug-23 00:33N 59°38' E 023°02'1919.0
2016-Aug-22 23:33N 59°42' E 023°38'2619.0
2016-Aug-22 22:10N 59°49' E 024°29'4918.7
2016-Aug-22 19:34N 60°03' E 026°02'1717.4
2016-Aug-22 18:33N 60°15' E 026°28'1817.7
2016-Aug-22 17:33N 60°26' E 026°57'4 3.6
2016-Aug-22 16:33N 60°29' E 026°57'0 0.0
2016-Aug-22 15:33N 60°29' E 026°57'0 0.0
2016-Aug-22 14:33N 60°29' E 026°57'0 0.0
2016-Aug-22 13:33N 60°29' E 026°57'0 0.0
2016-Aug-22 12:33N 60°29' E 026°57'0 0.0
2016-Aug-22 11:33N 60°29' E 026°57'0 0.0
2016-Aug-22 10:33N 60°29' E 026°57'0 0.0
2016-Aug-22 09:33N 60°29' E 026°57'0 0.0
2016-Aug-22 08:33N 60°29' E 026°57'0 0.0
2016-Aug-22 07:33N 60°29' E 026°57'0 0.0
2016-Aug-22 06:33N 60°29' E 026°57'0 0.0
2016-Aug-22 05:33N 60°29' E 026°57'0 0.0
2016-Aug-22 04:33N 60°29' E 026°57'0 0.0
2016-Aug-22 03:33N 60°29' E 026°57'0 0.0
2016-Aug-22 02:33N 60°29' E 026°57'0 0.0
2016-Aug-22 01:33N 60°29' E 026°57'0 0.2
2016-Aug-22 00:33N 60°29' E 026°57'9 9.5
2016-Aug-21 23:34N 60°22' E 026°43'1717.4
2016-Aug-21 22:34N 60°10' E 026°20'1616.0
2016-Aug-21 21:33N 60°00' E 025°54'2114.2
2016-Aug-21 20:03N 60°03' E 025°11'714.8
2016-Aug-21 19:34N 60°10' E 025°13'11 1.4
2016-Aug-21 11:33N 60°00' E 025°04'1919.0
2016-Aug-21 10:34N 59°46' E 024°38'1918.9
2016-Aug-21 09:34N 59°40' E 024°03'1919.2
2016-Aug-21 08:34N 59°35' E 023°27'1919.3
2016-Aug-21 07:34N 59°28' E 022°51'1919.0
2016-Aug-21 06:33N 59°18' E 022°19'30218.8
2016-Aug-20 14:29N 55°44' E 015°43'1819.3
2016-Aug-20 13:33N 55°35' E 015°16'1919.2
2016-Aug-20 12:33N 55°25' E 014°47'1919.1
2016-Aug-20 11:33N 55°13' E 014°21'1818.4
2016-Aug-20 10:34N 55°11' E 013°49'1918.5
2016-Aug-20 09:34N 55°13' E 013°17'1818.2
2016-Aug-20 08:34N 55°16' E 012°46'1313.5
2016-Aug-20 07:34N 55°30' E 012°41'1111.4
2016-Aug-20 06:34N 55°41' E 012°41'1514.9
2016-Aug-20 05:34N 55°56' E 012°39'1515.4
2016-Aug-20 04:33N 56°09' E 012°25'1817.7
2016-Aug-20 03:34N 56°21' E 012°02'1918.8
2016-Aug-20 02:33N 56°40' E 011°54'1918.8
2016-Aug-20 01:33N 56°57' E 011°42'1818.2
2016-Aug-20 00:33N 57°15' E 011°33'1818.4
2016-Aug-19 23:33N 57°31' E 011°16'1918.6
2016-Aug-19 22:33N 57°44' E 010°51'13917.3
2016-Aug-19 14:33N 56°18' E 007°31'1919.2
2016-Aug-19 13:33N 56°02' E 007°12'2019.1
2016-Aug-19 12:29N 55°45' E 006°52'1819.2
2016-Aug-19 11:33N 55°29' E 006°36'7819.3
2016-Aug-19 07:30N 54°23' E 005°25'1819.5
2016-Aug-19 06:33N 54°07' E 005°09'2019.5
2016-Aug-19 05:33N 53°49' E 004°57'2019.8
2016-Aug-19 04:32N 53°30' E 004°44'2120.1
2016-Aug-19 03:30N 53°10' E 004°31'1919.8
2016-Aug-19 02:33N 52°54' E 004°18'2019.3
2016-Aug-19 01:33N 52°39' E 003°57'1919.0
2016-Aug-19 00:33N 52°24' E 003°38'1818.3
2016-Aug-18 23:33N 52°07' E 003°27'1817.6
2016-Aug-18 22:33N 51°50' E 003°18'1312.9
2016-Aug-18 21:33N 51°38' E 003°21'1313.4
2016-Aug-18 20:34N 51°27' E 003°33'10 9.7
2016-Aug-18 19:34N 51°22' E 003°46'1313.4
2016-Aug-18 18:34N 51°22' E 004°08'9 8.8
2016-Aug-18 17:34N 51°16' E 004°17'2 1.5
2016-Aug-18 16:33N 51°16' E 004°15'1 1.2
2016-Aug-18 15:33N 51°17' E 004°13'0 0.0
2016-Aug-18 14:33N 51°17' E 004°13'0 0.0
2016-Aug-18 13:33N 51°17' E 004°13'0 0.0
2016-Aug-18 12:33N 51°17' E 004°13'0 0.0
2016-Aug-18 11:30N 51°17' E 004°13'0 0.0
2016-Aug-18 10:33N 51°17' E 004°13'0 0.0
2016-Aug-18 09:33N 51°17' E 004°13'0 0.0
2016-Aug-18 08:30N 51°17' E 004°13'0 0.0
2016-Aug-18 07:33N 51°17' E 004°13'0 0.0
2016-Aug-18 06:33N 51°17' E 004°13'0 0.0
2016-Aug-18 05:33N 51°17' E 004°13'1 1.1
2016-Aug-18 04:33N 51°17' E 004°15'5 4.7
2016-Aug-18 03:33N 51°21' E 004°14'1010.4
2016-Aug-18 02:34N 51°26' E 003°59'1110.8
2016-Aug-18 01:34N 51°24' E 003°43'1211.5
2016-Aug-18 00:34N 51°30' E 003°27'1515.4
2016-Aug-17 23:33N 51°44' E 003°15'1212.0
2016-Aug-17 22:33N 51°55' E 003°19'2019.9
2016-Aug-17 21:33N 52°14' E 003°28'1919.2
2016-Aug-17 20:33N 52°24' E 003°55'2019.8
2016-Aug-17 19:33N 52°28' E 004°27'6 5.9
2016-Aug-17 18:33N 52°28' E 004°37'6 5.6
2016-Aug-17 17:34N 52°26' E 004°45'3 3.3
2016-Aug-17 16:31N 52°24' E 004°50'0 0.0
2016-Aug-17 15:31N 52°24' E 004°50'0 0.0
2016-Aug-17 14:31N 52°24' E 004°50'0 0.0
2016-Aug-17 13:31N 52°24' E 004°50'0 0.0
2016-Aug-17 12:31N 52°24' E 004°50'0 0.0
2016-Aug-17 11:31N 52°24' E 004°50'0 0.0
2016-Aug-17 10:31N 52°24' E 004°50'0 0.3
2016-Aug-17 09:33N 52°24' E 004°49'7 7.1
2016-Aug-17 08:33N 52°28' E 004°39'2 2.4
2016-Aug-17 07:33N 52°28' E 004°36'1514.6
2016-Aug-17 06:34N 52°29' E 004°12'1917.4
2016-Aug-17 05:29N 52°25' E 003°42'2118.1
2016-Aug-17 04:18N 52°11' E 003°15'1418.6
2016-Aug-17 03:33N 52°03' E 002°56'1919.2
2016-Aug-17 02:32N 51°53' E 002°29'1919.8
2016-Aug-17 01:33N 51°42' E 002°03'2019.7
2016-Aug-17 00:34N 51°30' E 001°38'1212.2
2016-Aug-16 23:33N 51°29' E 001°18'1717.1
2016-Aug-16 22:33N 51°29' E 000°51'1514.7
2016-Aug-16 21:33N 51°28' E 000°27'4 4.2
2016-Aug-16 20:34N 51°27' E 000°20'1 0.6
2016-Aug-16 19:34N 51°27' E 000°21'0 0.0
2016-Aug-16 18:33N 51°27' E 000°21'0 0.0
2016-Aug-16 17:34N 51°27' E 000°21'0 0.0
2016-Aug-16 16:34N 51°27' E 000°21'0 0.0
2016-Aug-16 15:34N 51°27' E 000°21'0 0.0
2016-Aug-16 14:33N 51°27' E 000°21'0 0.0
2016-Aug-16 13:33N 51°27' E 000°21'0 0.0
2016-Aug-16 12:33N 51°27' E 000°21'0 0.0
2016-Aug-16 11:34N 51°27' E 000°21'0 0.0
2016-Aug-16 10:34N 51°27' E 000°21'0 0.0
2016-Aug-16 09:34N 51°27' E 000°21'0 0.3
2016-Aug-16 08:34N 51°27' E 000°21'0 0.3
2016-Aug-16 07:34N 51°27' E 000°21'  

Dump ship's entire track history